Time;durP1;ratioP1;P1;durP2;ratioP2;P2;SDS_P1;SDS_P2;PMS_P1;PMS_P2;Temp;Humidity;BMP_temperature;BMP_pressure;BME280_temperature;BME280_humidity;BME280_pressure;Samples;Min_cycle;Max_cycle;Signal;HPM_P1;HPM_P2
2023/12/12 00:00:30;;;;;;;2.40;0.93;;;;;;;7.32;100.00;99938.56;5094989;28;20472;-67
2023/12/12 00:02:58;;;;;;;2.80;0.73;;;;;;;7.34;100.00;99944.44;5094986;28;20440;-66
2023/12/12 00:05:25;;;;;;;2.10;0.70;;;;;;;7.39;100.00;99950.84;5095289;28;20457;-67
2023/12/12 00:07:52;;;;;;;2.20;0.53;;;;;;;7.37;100.00;99959.22;5095429;28;20501;-66
2023/12/12 00:10:18;;;;;;;2.83;0.60;;;;;;;7.41;100.00;99959.44;5095134;28;20428;-66
2023/12/12 00:12:45;;;;;;;2.00;0.60;;;;;;;7.43;100.00;99968.03;5094879;28;20437;-67
2023/12/12 00:15:12;;;;;;;1.80;0.57;;;;;;;7.43;100.00;99962.63;5094662;28;20464;-66
2023/12/12 00:17:38;;;;;;;2.20;0.57;;;;;;;7.33;100.00;99967.09;5094432;28;20888;-66
2023/12/12 00:20:08;;;;;;;2.93;0.80;;;;;;;7.35;100.00;99977.59;5094445;28;20486;-66
2023/12/12 00:22:35;;;;;;;2.00;0.50;;;;;;;7.36;100.00;99968.41;5094961;28;20440;-67
2023/12/12 00:25:02;;;;;;;2.20;0.50;;;;;;;7.37;100.00;99978.09;5094471;28;20468;-67
2023/12/12 00:27:28;;;;;;;1.80;0.43;;;;;;;7.31;100.00;99977.38;5095265;28;20444;-67
2023/12/12 00:29:55;;;;;;;3.20;1.00;;;;;;;7.32;100.00;99973.59;5094209;28;20475;-67
2023/12/12 00:32:22;;;;;;;2.00;0.60;;;;;;;7.38;100.00;99976.19;5094256;28;20532;-67
2023/12/12 00:34:48;;;;;;;3.83;0.80;;;;;;;7.35;100.00;99985.69;5094326;28;20456;-67
2023/12/12 00:37:16;;;;;;;2.53;0.80;;;;;;;7.33;100.00;99974.38;5094783;28;20443;-67
2023/12/12 00:39:43;;;;;;;2.57;0.90;;;;;;;7.34;100.00;99982.16;5094315;28;20484;-66
2023/12/12 00:42:09;;;;;;;1.80;0.40;;;;;;;7.32;100.00;99988.94;5094611;28;20531;-66
2023/12/12 00:44:36;;;;;;;2.00;0.50;;;;;;;7.32;100.00;99991.66;5093860;28;20964;-67
2023/12/12 00:47:05;;;;;;;2.87;0.60;;;;;;;7.30;100.00;99994.66;5094172;28;20809;-66
2023/12/12 00:49:31;;;;;;;2.03;0.70;;;;;;;7.32;100.00;99984.38;5094731;28;20436;-66
2023/12/12 00:51:58;;;;;;;1.90;0.50;;;;;;;7.35;100.00;100009.94;5094354;28;20501;-66
2023/12/12 00:54:26;;;;;;;1.77;0.40;;;;;;;7.35;100.00;100012.63;5093766;28;20491;-66
2023/12/12 00:56:52;;;;;;;2.10;0.53;;;;;;;7.39;100.00;100010.13;5094140;28;20472;-66
2023/12/12 00:59:19;;;;;;;2.23;0.90;;;;;;;7.36;100.00;100016.13;5093651;28;20439;-66
2023/12/12 01:01:46;;;;;;;1.80;0.40;;;;;;;7.36;100.00;100021.50;5094291;28;20441;-66
2023/12/12 01:04:12;;;;;;;2.37;0.67;;;;;;;7.39;100.00;100029.78;5093672;28;20552;-66
2023/12/12 01:06:39;;;;;;;2.20;0.70;;;;;;;7.31;100.00;100028.56;5094132;28;20443;-66
2023/12/12 01:09:05;;;;;;;5.20;1.43;;;;;;;7.26;100.00;100028.66;5094274;28;20443;-66
2023/12/12 01:11:33;;;;;;;1.90;0.53;;;;;;;7.25;100.00;100026.22;5094238;28;20438;-66
2023/12/12 01:14:00;;;;;;;2.20;0.60;;;;;;;7.18;100.00;100034.69;5093740;28;20820;-66
2023/12/12 01:16:27;;;;;;;1.90;0.40;;;;;;;7.14;100.00;100030.97;5094297;28;20443;-67
2023/12/12 01:18:53;;;;;;;1.90;0.50;;;;;;;7.16;100.00;100042.25;5098394;22;20598;-67
2023/12/12 01:21:20;;;;;;;2.20;0.67;;;;;;;7.15;100.00;100043.34;5053263;28;20482;-67
2023/12/12 01:23:54;;;;;;;2.20;0.57;;;;;;;7.13;100.00;100042.84;5052633;28;20871;-67
2023/12/12 01:26:22;;;;;;;2.20;0.60;;;;;;;7.15;100.00;100048.72;5053401;28;20424;-67
2023/12/12 01:28:51;;;;;;;1.97;0.50;;;;;;;7.19;100.00;100047.06;5053682;28;20849;-67
2023/12/12 01:31:19;;;;;;;1.90;0.50;;;;;;;7.19;100.00;100054.34;5053172;28;20453;-67
2023/12/12 01:33:45;;;;;;;2.00;0.43;;;;;;;7.21;100.00;100055.63;5053263;28;20461;-67
2023/12/12 01:36:12;;;;;;;1.90;0.50;;;;;;;7.23;100.00;100052.66;5054843;28;20836;-67
2023/12/12 01:38:39;;;;;;;1.83;0.50;;;;;;;7.24;100.00;100067.72;5057430;28;20513;-67
2023/12/12 01:41:06;;;;;;;3.13;0.77;;;;;;;7.27;100.00;100064.47;5057451;28;20480;-67
2023/12/12 01:43:34;;;;;;;2.27;0.50;;;;;;;7.30;100.00;100070.06;5056941;28;20937;-67
2023/12/12 01:46:05;;;;;;;2.47;0.70;;;;;;;7.32;100.00;100078.66;5057046;28;20937;-67
2023/12/12 01:48:33;;;;;;;2.77;1.00;;;;;;;7.32;100.00;100078.66;5057248;28;20442;-67
2023/12/12 01:51:01;;;;;;;2.00;0.50;;;;;;;7.34;100.00;100078.34;5057797;28;20434;-67
2023/12/12 01:53:30;;;;;;;4.30;0.87;;;;;;;7.38;100.00;100075.88;5057438;28;20430;-67
2023/12/12 01:56:00;;;;;;;2.93;0.83;;;;;;;7.36;100.00;100086.16;5057186;28;20476;-66
2023/12/12 01:58:27;;;;;;;2.83;0.70;;;;;;;7.39;100.00;100088.25;5057056;28;20438;-66
2023/12/12 02:00:54;;;;;;;2.20;0.50;;;;;;;7.40;100.00;100089.88;5056952;28;20482;-67
2023/12/12 02:03:23;;;;;;;1.90;0.40;;;;;;;7.39;100.00;100083.66;5057283;28;20525;-67
2023/12/12 02:05:51;;;;;;;2.07;0.57;;;;;;;7.41;100.00;100083.38;5056752;28;20438;-67
2023/12/12 02:08:17;;;;;;;2.40;0.63;;;;;;;7.41;100.00;100081.50;5057296;28;20449;-67
2023/12/12 02:10:44;;;;;;;1.90;0.40;;;;;;;7.45;100.00;100077.13;5057096;28;20473;-67
2023/12/12 02:13:11;;;;;;;2.63;1.00;;;;;;;7.45;100.00;100074.44;5056479;28;20434;-67
2023/12/12 02:15:38;;;;;;;2.10;0.80;;;;;;;7.45;100.00;100077.13;5056709;28;20454;-67
2023/12/12 02:18:04;;;;;;;2.23;0.70;;;;;;;7.44;100.00;100074.72;5057143;28;20469;-67
2023/12/12 02:20:32;;;;;;;2.13;0.60;;;;;;;7.45;100.00;100079.00;5056598;28;20834;-67
2023/12/12 02:23:00;;;;;;;2.20;0.60;;;;;;;7.45;100.00;100077.13;5056344;28;20470;-67
2023/12/12 02:25:27;;;;;;;1.90;0.50;;;;;;;7.44;100.00;100080.13;5056456;28;20972;-67
2023/12/12 02:27:54;;;;;;;4.10;1.10;;;;;;;7.38;100.00;100079.38;5056696;28;20529;-67
2023/12/12 02:30:21;;;;;;;2.00;0.60;;;;;;;7.34;100.00;100078.34;5056507;28;20430;-65
2023/12/12 02:32:47;;;;;;;1.90;0.40;;;;;;;7.32;100.00;100085.94;5056518;28;20513;-68
2023/12/12 02:35:14;;;;;;;3.57;0.77;;;;;;;7.31;100.00;100085.13;5056391;28;20547;-67
2023/12/12 02:37:40;;;;;;;2.00;0.67;;;;;;;7.34;100.00;100081.84;5056467;28;20444;-67
2023/12/12 02:40:10;;;;;;;3.40;0.90;;;;;;;7.37;100.00;100082.38;5056244;28;20531;-67
2023/12/12 02:42:36;;;;;;;1.90;0.53;;;;;;;7.37;100.00;100083.16;5056350;28;20461;-67
2023/12/12 02:45:03;;;;;;;2.40;0.83;;;;;;;7.38;100.00;100083.97;5055892;28;20907;-67
2023/12/12 02:47:30;;;;;;;2.00;0.60;;;;;;;7.37;100.00;100087.75;5056527;28;20446;-67
2023/12/12 02:49:56;;;;;;;2.60;0.87;;;;;;;7.37;100.00;100085.84;5056102;28;20481;-67
2023/12/12 02:52:23;;;;;;;2.00;0.67;;;;;;;7.36;100.00;100089.66;5056113;28;20878;-67
2023/12/12 02:54:49;;;;;;;3.60;0.83;;;;;;;7.37;100.00;100085.06;5056324;28;20490;-67
2023/12/12 02:57:17;;;;;;;2.40;0.70;;;;;;;7.34;100.00;100094.50;5056319;28;20517;-67
2023/12/12 02:59:44;;;;;;;2.53;0.77;;;;;;;7.32;100.00;100097.50;5055819;28;20787;-67
2023/12/12 03:02:10;;;;;;;2.57;0.60;;;;;;;7.36;100.00;100091.53;5056178;28;20573;-67
2023/12/12 03:04:42;;;;;;;2.53;1.13;;;;;;;7.33;100.00;100090.22;5055882;28;20468;-70
2023/12/12 03:07:09;;;;;;;1.83;0.50;;;;;;;7.34;100.00;100097.19;5055557;28;20793;-67
2023/12/12 03:09:35;;;;;;;2.50;0.90;;;;;;;7.34;100.00;100094.50;5055841;28;20807;-67
2023/12/12 03:12:02;;;;;;;2.67;0.90;;;;;;;7.33;100.00;100101.00;5055835;28;20462;-67
2023/12/12 03:14:30;;;;;;;4.40;0.97;;;;;;;7.36;100.00;100107.72;5055335;28;20550;-67
2023/12/12 03:16:57;;;;;;;2.80;0.83;;;;;;;7.33;100.00;100099.09;5056070;28;20476;-67
2023/12/12 03:19:24;;;;;;;2.30;0.80;;;;;;;7.32;100.00;100099.41;5055418;28;20438;-67
2023/12/12 03:21:50;;;;;;;3.10;1.07;;;;;;;7.29;100.00;100090.00;5055922;28;20514;-67
2023/12/12 03:24:17;;;;;;;2.40;0.80;;;;;;;7.29;100.00;100092.69;5055865;28;20458;-67
2023/12/12 03:26:44;;;;;;;2.67;0.93;;;;;;;7.29;100.00;100091.91;5055505;28;20434;-67
2023/12/12 03:29:11;;;;;;;3.20;1.33;;;;;;;7.30;100.00;100094.31;5055819;28;20473;-67
2023/12/12 03:31:40;;;;;;;2.40;1.03;;;;;;;7.31;100.00;100101.31;5055725;28;20521;-67
2023/12/12 03:34:07;;;;;;;2.00;0.70;;;;;;;7.28;100.00;100093.78;5054942;28;20465;-67
2023/12/12 03:36:34;;;;;;;2.67;0.80;;;;;;;7.32;100.00;100099.41;5055356;28;20446;-67
2023/12/12 03:39:01;;;;;;;1.90;0.40;;;;;;;7.33;100.00;100101.78;5055398;28;20534;-67
2023/12/12 03:41:29;;;;;;;4.13;1.03;;;;;;;7.32;100.00;100108.28;5054912;28;21005;-67
2023/12/12 03:43:55;;;;;;;2.20;0.50;;;;;;;7.33;100.00;100115.25;5054765;28;20464;-67
2023/12/12 03:46:22;;;;;;;3.80;1.17;;;;;;;7.30;100.00;100102.41;5055085;28;20466;-67
2023/12/12 03:48:50;;;;;;;2.43;0.80;;;;;;;7.31;100.00;100112.06;5055636;28;20500;-67
2023/12/12 03:51:17;;;;;;;2.40;1.00;;;;;;;7.26;100.00;100104.06;5055034;28;20434;-67
2023/12/12 03:53:43;;;;;;;1.90;0.40;;;;;;;7.26;100.00;100101.38;5055227;28;20504;-67
2023/12/12 03:56:10;;;;;;;2.17;0.53;;;;;;;7.33;100.00;100099.09;5054655;28;20470;-67
2023/12/12 03:58:37;;;;;;;2.10;0.60;;;;;;;7.32;100.00;100102.09;5054272;28;20474;-67
2023/12/12 04:01:04;;;;;;;2.10;0.70;;;;;;;7.30;100.00;100105.09;5055048;28;20486;-66
2023/12/12 04:03:32;;;;;;;2.70;0.70;;;;;;;7.29;100.00;100114.25;5055143;28;20848;-66
2023/12/12 04:06:02;;;;;;;2.10;0.60;;;;;;;7.29;100.00;100106.16;5054806;28;20914;-67
2023/12/12 04:08:28;;;;;;;2.40;0.70;;;;;;;7.30;100.00;100118.56;5055005;28;20920;-67
2023/12/12 04:10:55;;;;;;;9.20;0.70;;;;;;;7.31;100.00;100117.47;5054687;28;20452;-67
2023/12/12 04:13:22;;;;;;;1.90;0.50;;;;;;;7.26;100.00;100112.16;5054507;28;20477;-67
2023/12/12 04:15:48;;;;;;;2.00;0.50;;;;;;;7.27;100.00;100110.25;5054567;28;20446;-67
2023/12/12 04:18:15;;;;;;;2.00;0.60;;;;;;;7.25;100.00;100113.22;5054822;28;20448;-67
2023/12/12 04:20:42;;;;;;;1.90;0.40;;;;;;;7.23;100.00;100114.63;5053951;28;20485;-67
2023/12/12 04:23:10;;;;;;;2.30;0.43;;;;;;;7.25;100.00;100117.81;5054425;28;20529;-67
2023/12/12 04:25:36;;;;;;;1.80;0.40;;;;;;;7.27;100.00;100121.03;5054639;28;20458;-67
2023/12/12 04:28:03;;;;;;;2.20;0.50;;;;;;;7.20;100.00;100113.28;5054642;28;20449;-66
2023/12/12 04:30:30;;;;;;;2.20;0.67;;;;;;;7.18;100.00;100118.19;5054215;28;20446;-66
2023/12/12 04:32:56;;;;;;;2.60;0.50;;;;;;;7.19;100.00;100108.22;5053953;28;20522;-66
2023/12/12 04:35:23;;;;;;;3.37;0.80;;;;;;;7.20;100.00;100109.81;5054470;28;20542;-67
2023/12/12 04:37:49;;;;;;;2.00;0.70;;;;;;;7.21;100.00;100114.88;5054151;28;20813;-67
2023/12/12 04:40:17;;;;;;;2.37;0.63;;;;;;;7.18;100.00;100109.31;5054479;28;20438;-67
2023/12/12 04:42:44;;;;;;;2.30;0.50;;;;;;;7.20;100.00;100118.69;5053738;28;20853;-67
2023/12/12 04:45:11;;;;;;;2.17;0.83;;;;;;;7.22;100.00;100124.59;5054291;28;20561;-67
2023/12/12 04:47:37;;;;;;;1.90;0.50;;;;;;;7.19;100.00;100130.56;5053987;28;20581;-67
2023/12/12 04:50:04;;;;;;;2.20;0.93;;;;;;;7.17;100.00;100130.06;5054201;28;20482;-67
2023/12/12 04:52:31;;;;;;;1.77;0.40;;;;;;;7.17;100.00;100138.13;5053826;28;20439;-67
2023/12/12 04:54:58;;;;;;;2.47;0.50;;;;;;;7.15;100.00;100132.22;5053865;28;20461;-67
2023/12/12 04:57:26;;;;;;;1.87;0.43;;;;;;;7.14;100.00;100132.50;5053861;28;20528;-67
2023/12/12 04:59:53;;;;;;;2.40;0.80;;;;;;;7.11;100.00;100128.50;5053995;28;20442;-67
2023/12/12 05:02:20;;;;;;;2.13;0.70;;;;;;;7.07;100.00;100128.25;5054336;28;20525;-67
2023/12/12 05:04:47;;;;;;;1.97;0.57;;;;;;;7.04;100.00;100128.06;5053287;28;20908;-67
2023/12/12 05:07:15;;;;;;;2.00;0.50;;;;;;;7.05;100.00;100135.03;5053410;28;20930;-67
2023/12/12 05:09:42;;;;;;;2.00;0.60;;;;;;;7.08;100.00;100134.44;5053752;28;20442;-67
2023/12/12 05:12:09;;;;;;;2.00;0.50;;;;;;;7.03;100.00;100127.25;5053190;28;20438;-67
2023/12/12 05:14:37;;;;;;;2.07;0.57;;;;;;;7.08;100.00;100127.19;5053471;28;20557;-67
2023/12/12 05:17:03;;;;;;;2.20;0.63;;;;;;;7.08;100.00;100134.44;5053818;28;20446;-67
2023/12/12 05:19:30;;;;;;;2.00;0.53;;;;;;;7.10;100.00;100136.88;5053134;28;20865;-67
2023/12/12 05:21:57;;;;;;;1.90;0.50;;;;;;;7.07;100.00;100138.25;5053602;28;20478;-67
2023/12/12 05:24:23;;;;;;;2.97;1.57;;;;;;;7.06;100.00;100137.44;5053082;28;20978;-67
2023/12/12 05:26:50;;;;;;;4.00;1.67;;;;;;;7.11;100.00;100135.78;5053734;28;20464;-67
2023/12/12 05:29:16;;;;;;;4.03;1.37;;;;;;;7.08;100.00;100143.34;5053725;28;20442;-67
2023/12/12 05:31:44;;;;;;;2.10;0.53;;;;;;;7.07;100.00;100144.44;5053653;28;20466;-67
2023/12/12 05:34:11;;;;;;;1.90;0.60;;;;;;;7.08;100.00;100148.75;5053385;28;20465;-67
2023/12/12 05:36:37;;;;;;;2.00;0.53;;;;;;;7.06;100.00;100145.53;5053391;28;20481;-67
2023/12/12 05:39:04;;;;;;;2.07;0.63;;;;;;;6.98;100.00;100151.53;5053264;28;20473;-67
2023/12/12 05:41:31;;;;;;;2.10;0.60;;;;;;;7.00;100.00;100153.97;5053208;28;20509;-67
2023/12/12 05:43:58;;;;;;;1.80;0.50;;;;;;;7.01;100.00;100150.19;5052825;28;21028;-67
2023/12/12 05:46:25;;;;;;;2.47;0.70;;;;;;;6.98;100.00;100151.53;5053037;28;20525;-67
2023/12/12 05:48:53;;;;;;;2.00;0.60;;;;;;;6.89;100.00;100158.66;5052864;28;20466;-67
2023/12/12 05:51:19;;;;;;;2.20;0.70;;;;;;;6.95;100.00;100154.81;5053345;28;20533;-65
2023/12/12 05:53:46;;;;;;;2.73;0.77;;;;;;;6.96;100.00;100158.31;5053011;28;20545;-68
2023/12/12 05:56:13;;;;;;;2.30;0.80;;;;;;;6.96;100.00;100166.41;5052981;28;20874;-67
2023/12/12 05:58:40;;;;;;;1.80;0.50;;;;;;;6.95;100.00;100164.78;5052994;28;20442;-67
2023/12/12 06:01:06;;;;;;;2.67;0.60;;;;;;;6.91;100.00;100166.47;5052807;28;20876;-67
2023/12/12 06:03:35;;;;;;;2.93;0.97;;;;;;;6.89;100.00;100163.22;5052832;28;20448;-67
2023/12/12 06:06:07;;;;;;;2.43;1.00;;;;;;;6.90;100.00;100175.59;5053131;28;20434;-67
2023/12/12 06:08:34;;;;;;;2.23;0.60;;;;;;;6.95;100.00;100173.69;5052774;28;20448;-67
2023/12/12 06:11:01;;;;;;;2.77;0.60;;;;;;;6.94;100.00;100176.63;5052916;28;20448;-67
2023/12/12 06:13:27;;;;;;;2.00;0.50;;;;;;;6.94;100.00;100177.44;5052935;28;20896;-66
2023/12/12 06:15:55;;;;;;;2.33;0.80;;;;;;;6.96;100.00;100185.25;5052914;28;20438;-66
2023/12/12 06:18:21;;;;;;;1.80;0.40;;;;;;;6.97;100.00;100182.25;5052871;28;20910;-66
2023/12/12 06:20:48;;;;;;;2.27;0.53;;;;;;;6.97;100.00;100178.75;5053158;28;20480;-66
2023/12/12 06:23:16;;;;;;;2.10;0.50;;;;;;;6.91;100.00;100188.78;5055066;28;20524;-66
2023/12/12 06:25:42;;;;;;;2.50;0.90;;;;;;;6.94;100.00;100190.91;5056770;28;20478;-66
2023/12/12 06:28:09;;;;;;;1.90;0.60;;;;;;;6.90;100.00;100186.38;5056993;28;20444;-66
2023/12/12 06:30:36;;;;;;;2.33;0.77;;;;;;;6.91;100.00;100188.00;5056284;28;20481;-66
2023/12/12 06:33:02;;;;;;;1.90;0.50;;;;;;;6.91;100.00;100199.56;5056254;28;20438;-66
2023/12/12 06:35:29;;;;;;;2.50;1.00;;;;;;;6.88;100.00;100202.81;5056225;28;20496;-66
2023/12/12 06:37:56;;;;;;;4.23;0.83;;;;;;;6.90;100.00;100202.53;5056101;28;20448;-66
2023/12/12 06:40:24;;;;;;;2.23;0.60;;;;;;;6.91;100.00;100212.22;5056265;28;20565;-66
2023/12/12 06:42:50;;;;;;;5.40;0.80;;;;;;;6.87;100.00;100213.88;5056250;28;20522;-66
2023/12/12 06:45:18;;;;;;;2.47;0.87;;;;;;;6.82;100.00;100212.84;5055850;28;20490;-66
2023/12/12 06:47:44;;;;;;;2.17;0.63;;;;;;;6.81;100.00;100215.81;5056273;28;21005;-66
2023/12/12 06:50:11;;;;;;;2.10;0.80;;;;;;;6.80;100.00;100214.19;5056552;28;20444;-66
2023/12/12 06:52:38;;;;;;;2.40;0.80;;;;;;;6.81;100.00;100221.97;5055829;28;20941;-66
2023/12/12 06:55:05;;;;;;;2.20;0.77;;;;;;;6.83;100.00;100217.13;5056333;28;20571;-66
2023/12/12 06:57:34;;;;;;;1.90;0.50;;;;;;;6.85;100.00;100213.34;5056316;28;20438;-66
2023/12/12 07:00:00;;;;;;;1.90;0.50;;;;;;;6.85;100.00;100216.03;5055951;28;20448;-66
2023/12/12 07:02:27;;;;;;;2.57;0.90;;;;;;;6.84;100.00;100220.63;5055917;28;20521;-66
2023/12/12 07:04:54;;;;;;;2.17;0.80;;;;;;;6.87;100.00;100220.06;5055858;28;20454;-66
2023/12/12 07:07:20;;;;;;;2.97;0.70;;;;;;;6.89;100.00;100219.75;5055956;28;20481;-66
2023/12/12 07:09:47;;;;;;;2.63;0.77;;;;;;;6.88;100.00;100224.34;5055516;28;20449;-66
2023/12/12 07:12:13;;;;;;;2.60;0.63;;;;;;;6.85;100.00;100222.22;5055818;28;20438;-66
2023/12/12 07:14:42;;;;;;;2.50;0.70;;;;;;;6.85;100.00;100221.44;5055620;28;20549;-66
2023/12/12 07:17:08;;;;;;;11.43;0.90;;;;;;;6.85;100.00;100222.22;5055666;28;20914;-65
2023/12/12 07:19:35;;;;;;;2.30;0.60;;;;;;;6.85;100.00;100232.19;5055408;28;20466;-67
2023/12/12 07:22:02;;;;;;;1.90;0.50;;;;;;;6.83;100.00;100225.22;5055305;28;21005;-68
2023/12/12 07:24:29;;;;;;;3.20;1.13;;;;;;;6.82;100.00;100229.00;5055552;28;20473;-67
2023/12/12 07:26:56;;;;;;;2.10;0.60;;;;;;;6.85;100.00;100232.19;5055464;28;20545;-67
2023/12/12 07:29:22;;;;;;;1.90;0.40;;;;;;;6.86;100.00;100239.16;5055142;28;20500;-66
2023/12/12 07:31:51;;;;;;;3.40;0.83;;;;;;;6.87;100.00;100230.03;5055553;28;20442;-67
2023/12/12 07:34:17;;;;;;;2.33;1.00;;;;;;;6.83;100.00;100229.78;5054032;28;20462;-67
2023/12/12 07:36:45;;;;;;;2.30;0.60;;;;;;;6.86;100.00;100239.97;5055312;28;20448;-67
2023/12/12 07:39:11;;;;;;;2.17;0.70;;;;;;;6.89;100.00;100231.34;5055213;28;20449;-67
2023/12/12 07:41:38;;;;;;;3.67;1.83;;;;;;;6.90;100.00;100232.13;5055295;28;20466;-69
2023/12/12 07:44:05;;;;;;;3.30;1.00;;;;;;;6.94;100.00;100235.88;5055320;28;20541;-67
2023/12/12 07:46:37;;;;;;;2.70;0.70;;;;;;;6.91;100.00;100233.75;5055480;28;20444;-66
2023/12/12 07:49:05;;;;;;;3.33;0.77;;;;;;;6.92;100.00;100230.78;5055201;28;20423;-66
2023/12/12 07:51:32;;;;;;;2.00;0.43;;;;;;;6.95;100.00;100232.06;5055455;28;20450;-67
2023/12/12 07:53:59;;;;;;;2.63;1.00;;;;;;;6.94;100.00;100223.19;5054898;28;20458;-66
2023/12/12 07:56:25;;;;;;;2.00;0.57;;;;;;;6.96;100.00;100231.81;5055328;28;20445;-67
2023/12/12 07:58:52;;;;;;;1.83;0.47;;;;;;;6.93;100.00;100223.50;5055388;28;20442;-66
2023/12/12 08:01:19;;;;;;;2.47;0.70;;;;;;;6.90;100.00;100234.81;5054821;28;20525;-66
2023/12/12 08:03:45;;;;;;;2.30;0.87;;;;;;;6.86;100.00;100228.41;5054655;28;20539;-66
2023/12/12 08:06:13;;;;;;;1.90;0.50;;;;;;;6.89;100.00;100233.22;5055004;28;20527;-66
2023/12/12 08:08:40;;;;;;;2.20;0.73;;;;;;;6.92;100.00;100225.38;5054633;28;20940;-66
2023/12/12 08:11:13;;;;;;;3.00;1.00;;;;;;;6.91;100.00;100237.25;5054701;28;20438;-67
2023/12/12 08:13:39;;;;;;;2.53;0.70;;;;;;;6.87;100.00;100238.09;5054988;28;20490;-67
2023/12/12 08:16:07;;;;;;;3.43;0.93;;;;;;;6.84;100.00;100239.47;5054954;28;20461;-67
2023/12/12 08:18:34;;;;;;;2.33;0.93;;;;;;;6.90;100.00;100238.31;5054474;28;20478;-67
2023/12/12 08:21:00;;;;;;;2.77;0.90;;;;;;;6.83;100.00;100240.56;5054563;28;20459;-67
2023/12/12 08:23:28;;;;;;;3.10;1.03;;;;;;;6.83;100.00;100244.06;5054375;28;20540;-66
2023/12/12 08:25:55;;;;;;;2.93;0.97;;;;;;;6.85;100.00;100249.13;5054456;28;20442;-66
2023/12/12 08:28:25;;;;;;;4.60;0.90;;;;;;;6.91;100.00;100250.72;5054798;28;20446;-67
2023/12/12 08:30:51;;;;;;;3.33;1.70;;;;;;;6.90;100.00;100253.66;5054304;28;20533;-67
2023/12/12 08:33:20;;;;;;;3.30;1.53;;;;;;;6.92;100.00;100254.22;5054574;28;20443;-68
2023/12/12 08:35:46;;;;;;;2.43;0.90;;;;;;;6.91;100.00;100255.31;5054543;28;20442;-68
2023/12/12 08:38:13;;;;;;;4.47;1.63;;;;;;;6.91;100.00;100249.91;5054515;28;20442;-68
2023/12/12 08:40:41;;;;;;;2.50;0.80;;;;;;;6.89;100.00;100252.06;5054171;28;20469;-68
2023/12/12 08:43:07;;;;;;;4.10;1.07;;;;;;;6.90;100.00;100261.75;5053785;28;20486;-68
2023/12/12 08:45:34;;;;;;;2.57;0.97;;;;;;;6.88;100.00;100261.25;5053881;28;20458;-70
2023/12/12 08:48:01;;;;;;;2.57;0.97;;;;;;;6.92;100.00;100256.91;5053886;28;20481;-68
2023/12/12 08:50:27;;;;;;;2.40;0.60;;;;;;;6.97;100.00;100259.53;5053999;28;20470;-67
2023/12/12 08:52:54;;;;;;;2.50;0.97;;;;;;;7.00;100.00;100257.09;5053588;28;20442;-67
2023/12/12 08:55:20;;;;;;;2.27;0.50;;;;;;;7.01;100.00;100260.56;5053918;28;20541;-68
2023/12/12 08:57:48;;;;;;;2.20;0.53;;;;;;;6.96;100.00;100266.00;5053922;28;20438;-68
2023/12/12 09:00:16;;;;;;;2.73;0.83;;;;;;;6.95;100.00;100267.91;5053656;28;20445;-67
2023/12/12 09:02:42;;;;;;;2.13;0.77;;;;;;;6.91;100.00;100266.88;5053622;28;20518;-66
2023/12/12 09:05:09;;;;;;;2.10;0.60;;;;;;;6.89;100.00;100277.09;5053288;28;20537;-68
2023/12/12 09:07:36;;;;;;;2.47;0.77;;;;;;;6.87;100.00;100263.13;5053859;28;20438;-67
2023/12/12 09:10:04;;;;;;;2.27;0.60;;;;;;;6.87;100.00;100271.22;5053557;28;20438;-67
2023/12/12 09:12:30;;;;;;;2.40;0.83;;;;;;;6.92;100.00;100273.06;5053737;28;20470;-67
2023/12/12 09:14:58;;;;;;;2.00;0.40;;;;;;;6.93;100.00;100271.97;5053832;28;20469;-67
2023/12/12 09:17:25;;;;;;;2.13;0.67;;;;;;;6.95;100.00;100273.28;5053944;28;20438;-67
2023/12/12 09:19:52;;;;;;;3.60;0.80;;;;;;;6.95;100.00;100270.59;5053343;28;20511;-67
2023/12/12 09:22:18;;;;;;;2.43;0.80;;;;;;;6.93;100.00;100271.97;5053068;28;20445;-67
2023/12/12 09:24:45;;;;;;;2.00;0.60;;;;;;;6.88;100.00;100272.81;5053357;28;20550;-67
2023/12/12 09:27:11;;;;;;;2.00;0.53;;;;;;;6.93;100.00;100269.25;5053068;28;20473;-67
2023/12/12 09:29:38;;;;;;;2.70;0.80;;;;;;;6.96;100.00;100266.81;5053081;28;20442;-67
2023/12/12 09:32:07;;;;;;;2.37;0.93;;;;;;;6.92;100.00;100268.47;5053345;28;20466;-67
2023/12/12 09:34:34;;;;;;;2.70;0.67;;;;;;;6.94;100.00;100274.34;5053273;28;20462;-67
2023/12/12 09:37:00;;;;;;;2.53;0.90;;;;;;;6.88;100.00;100266.63;5053343;28;20806;-67
2023/12/12 09:39:27;;;;;;;3.07;1.00;;;;;;;6.87;100.00;100267.72;5053309;28;20438;-67
2023/12/12 09:41:54;;;;;;;2.07;0.67;;;;;;;6.86;100.00;100266.09;5053246;28;20439;-66
2023/12/12 09:44:21;;;;;;;2.63;0.60;;;;;;;6.88;100.00;100272.00;5053429;28;20482;-66
2023/12/12 09:46:49;;;;;;;2.33;0.93;;;;;;;6.85;100.00;100264.50;5052918;28;20474;-67
2023/12/12 09:49:18;;;;;;;2.00;0.80;;;;;;;6.89;100.00;100262.84;5053502;28;20474;-67
2023/12/12 09:51:45;;;;;;;2.10;0.60;;;;;;;6.87;100.00;100275.78;5053161;28;20438;-67
2023/12/12 09:54:12;;;;;;;2.33;0.87;;;;;;;6.90;100.00;100267.94;5053094;28;20462;-66
2023/12/12 09:56:39;;;;;;;2.57;1.10;;;;;;;6.87;100.00;100273.09;5053144;28;20792;-66
2023/12/12 09:59:06;;;;;;;2.83;0.67;;;;;;;6.78;100.00;100270.22;5057130;28;20473;-67
2023/12/12 10:01:34;;;;;;;2.33;0.73;;;;;;;6.79;100.00;100279.91;5057474;28;20438;-67
2023/12/12 10:04:05;;;;;;;2.47;0.70;;;;;;;6.76;100.00;100277.75;5057174;28;20486;-67
2023/12/12 10:06:39;;;;;;;4.20;1.00;;;;;;;6.82;100.00;100271.25;5057071;28;20440;-67
2023/12/12 10:09:07;;;;;;;1.80;0.40;;;;;;;6.86;100.00;100274.16;5057077;28;20516;-66
2023/12/12 10:11:33;;;;;;;2.47;0.97;;;;;;;6.88;100.00;100275.50;5056970;28;20485;-66
2023/12/12 10:14:00;;;;;;;1.93;0.60;;;;;;;6.86;100.00;100274.16;5057088;28;20450;-67
2023/12/12 10:16:30;;;;;;;1.80;0.40;;;;;;;6.85;100.00;100264.50;5056983;28;20466;-67
2023/12/12 10:19:00;;;;;;;3.00;0.93;;;;;;;6.88;100.00;100266.63;5056734;28;20484;-67
2023/12/12 10:21:27;;;;;;;1.90;0.40;;;;;;;6.87;100.00;100265.81;5057136;28;20814;-67
2023/12/12 10:23:56;;;;;;;3.43;0.77;;;;;;;6.83;100.00;100257.50;5056852;28;20986;-67
2023/12/12 10:26:29;;;;;;;2.30;0.90;;;;;;;6.86;100.00;100258.81;5056884;28;20908;-67
2023/12/12 10:28:57;;;;;;;2.67;0.97;;;;;;;6.89;100.00;100260.94;5056608;28;20926;-67
2023/12/12 10:31:24;;;;;;;2.10;0.80;;;;;;;6.96;100.00;100255.25;5056663;28;20442;-67
2023/12/12 10:33:51;;;;;;;2.00;0.70;;;;;;;6.97;100.00;100254.16;5056174;28;20515;-67
2023/12/12 10:36:17;;;;;;;2.30;0.63;;;;;;;6.96;100.00;100244.47;5056494;28;20521;-67
2023/12/12 10:38:44;;;;;;;2.43;1.07;;;;;;;7.01;100.00;100256.00;5056653;28;20444;-67
2023/12/12 10:41:14;;;;;;;4.17;1.27;;;;;;;7.07;100.00;100246.75;5056372;28;20444;-67
2023/12/12 10:43:42;;;;;;;3.03;0.90;;;;;;;7.12;100.00;100245.91;5055882;28;21020;-67
2023/12/12 10:46:12;;;;;;;2.10;0.60;;;;;;;7.15;100.00;100250.72;5055989;28;20449;-67
2023/12/12 10:48:44;;;;;;;2.10;0.73;;;;;;;7.08;100.00;100252.94;5056343;28;20526;-67
2023/12/12 10:51:12;;;;;;;2.00;0.50;;;;;;;7.08;100.00;100247.56;5056496;28;20476;-67
2023/12/12 10:53:41;;;;;;;2.30;0.90;;;;;;;7.08;100.00;100239.47;5055756;28;20462;-67
2023/12/12 10:56:08;;;;;;;1.80;0.50;;;;;;;7.12;100.00;100243.19;5056127;28;20466;-67
2023/12/12 10:58:39;;;;;;;2.37;0.73;;;;;;;7.14;100.00;100226.78;5055965;28;20430;-67
2023/12/12 11:01:07;;;;;;;2.70;0.70;;;;;;;7.20;100.00;100239.09;5056264;28;20423;-67
2023/12/12 11:03:36;;;;;;;1.80;0.50;;;;;;;7.23;100.00;100230.44;5056079;28;20513;-67
2023/12/12 11:06:03;;;;;;;4.07;1.13;;;;;;;7.29;100.00;100230.06;5056420;28;20461;-67
2023/12/12 11:08:31;;;;;;;2.50;1.07;;;;;;;7.40;100.00;100229.97;5054546;28;20481;-67
2023/12/12 11:10:59;;;;;;;2.43;0.97;;;;;;;7.49;100.00;100223.66;5055941;28;20953;-67
2023/12/12 11:13:29;;;;;;;2.63;0.80;;;;;;;7.56;100.00;100221.38;5055745;28;20441;-67
2023/12/12 11:15:59;;;;;;;2.20;0.63;;;;;;;7.63;100.00;100221.03;5055405;28;20993;-67
2023/12/12 11:18:27;;;;;;;2.20;0.70;;;;;;;7.69;100.00;100222.56;5055849;28;20441;-68
2023/12/12 11:20:53;;;;;;;3.50;0.83;;;;;;;7.73;100.00;100223.59;5055849;28;20418;-67
2023/12/12 11:23:53;;;;;;;2.00;0.50;;;;;;;7.73;100.00;100220.09;5055472;28;20981;-65
2023/12/12 11:26:21;;;;;;;2.60;0.90;;;;;;;7.77;100.00;100213.84;5055907;28;20427;-66